sensor_id;sensor_type;location;lat;lon;timestamp;P1;durP1;ratioP1;P2;durP2;ratioP2
44446;SDS011;30152;52.066;5.358;2023-03-21T07:43:18;27.55;;;9.77;;
44446;SDS011;30152;52.066;5.358;2023-03-21T07:45:45;22.77;;;10.57;;
44446;SDS011;30152;52.066;5.358;2023-03-21T07:48:11;20.13;;;9.13;;
44446;SDS011;30152;52.066;5.358;2023-03-21T07:50:38;24.65;;;9.85;;
44446;SDS011;30152;52.066;5.358;2023-03-21T07:53:04;21.35;;;9.63;;
44446;SDS011;30152;52.066;5.358;2023-03-21T07:55:30;23.88;;;10.43;;
44446;SDS011;30152;52.066;5.358;2023-03-21T07:57:58;21.92;;;9.70;;
44446;SDS011;30152;52.066;5.358;2023-03-21T08:00:25;21.92;;;9.73;;
44446;SDS011;30152;52.066;5.358;2023-03-21T08:02:51;25.00;;;9.80;;
44446;SDS011;30152;52.066;5.358;2023-03-21T08:05:29;22.88;;;10.13;;
44446;SDS011;30152;52.066;5.358;2023-03-21T08:07:58;20.08;;;10.13;;
44446;SDS011;30152;52.066;5.358;2023-03-21T08:10:25;22.45;;;11.45;;
44446;SDS011;30152;52.066;5.358;2023-03-21T08:12:50;17.23;;;8.88;;
44446;SDS011;30152;52.066;5.358;2023-03-21T08:15:16;21.65;;;9.93;;
44446;SDS011;30152;52.066;5.358;2023-03-21T08:17:42;23.83;;;10.05;;
44446;SDS011;30152;52.066;5.358;2023-03-21T08:20:10;20.70;;;9.98;;
44446;SDS011;30152;52.066;5.358;2023-03-21T08:22:38;22.67;;;9.80;;
44446;SDS011;30152;52.066;5.358;2023-03-21T08:25:05;23.95;;;10.57;;
44446;SDS011;30152;52.066;5.358;2023-03-21T08:27:32;20.52;;;8.32;;
44446;SDS011;30152;52.066;5.358;2023-03-21T08:29:59;17.55;;;8.95;;
44446;SDS011;30152;52.066;5.358;2023-03-21T08:32:25;23.25;;;10.25;;
44446;SDS011;30152;52.066;5.358;2023-03-21T08:34:57;23.80;;;9.90;;
44446;SDS011;30152;52.066;5.358;2023-03-21T08:37:23;17.52;;;8.32;;
44446;SDS011;30152;52.066;5.358;2023-03-21T08:39:49;20.65;;;9.48;;
44446;SDS011;30152;52.066;5.358;2023-03-21T08:42:15;19.25;;;8.40;;
44446;SDS011;30152;52.066;5.358;2023-03-21T08:44:41;17.27;;;7.85;;
44446;SDS011;30152;52.066;5.358;2023-03-21T08:47:06;14.75;;;7.35;;
44446;SDS011;30152;52.066;5.358;2023-03-21T08:49:33;18.77;;;7.55;;
44446;SDS011;30152;52.066;5.358;2023-03-21T08:51:59;18.55;;;8.02;;
44446;SDS011;30152;52.066;5.358;2023-03-21T08:54:25;17.95;;;7.82;;
44446;SDS011;30152;52.066;5.358;2023-03-21T08:56:51;14.07;;;7.95;;
44446;SDS011;30152;52.066;5.358;2023-03-21T08:59:17;16.23;;;8.18;;
44446;SDS011;30152;52.066;5.358;2023-03-21T09:01:44;19.27;;;8.55;;
44446;SDS011;30152;52.066;5.358;2023-03-21T09:04:10;16.90;;;7.45;;
44446;SDS011;30152;52.066;5.358;2023-03-21T09:06:36;16.20;;;7.45;;
44446;SDS011;30152;52.066;5.358;2023-03-21T09:09:04;15.10;;;7.22;;
44446;SDS011;30152;52.066;5.358;2023-03-21T09:11:32;16.15;;;7.47;;
44446;SDS011;30152;52.066;5.358;2023-03-21T09:13:58;17.38;;;7.38;;
44446;SDS011;30152;52.066;5.358;2023-03-21T09:16:24;16.73;;;7.13;;
44446;SDS011;30152;52.066;5.358;2023-03-21T09:18:50;20.30;;;7.90;;
44446;SDS011;30152;52.066;5.358;2023-03-21T09:21:19;20.38;;;8.07;;
44446;SDS011;30152;52.066;5.358;2023-03-21T09:23:47;17.05;;;7.28;;
44446;SDS011;30152;52.066;5.358;2023-03-21T09:26:16;16.58;;;7.93;;
44446;SDS011;30152;52.066;5.358;2023-03-21T09:28:43;17.70;;;7.93;;
44446;SDS011;30152;52.066;5.358;2023-03-21T09:31:10;18.63;;;8.70;;
44446;SDS011;30152;52.066;5.358;2023-03-21T09:33:36;16.98;;;7.55;;
44446;SDS011;30152;52.066;5.358;2023-03-21T09:36:04;12.35;;;6.43;;
44446;SDS011;30152;52.066;5.358;2023-03-21T09:38:30;16.60;;;7.82;;
44446;SDS011;30152;52.066;5.358;2023-03-21T09:41:06;16.80;;;7.30;;
44446;SDS011;30152;52.066;5.358;2023-03-21T09:51:53;19.77;;;8.80;;
44446;SDS011;30152;52.066;5.358;2023-03-21T09:56:58;25.58;;;8.38;;
44446;SDS011;30152;52.066;5.358;2023-03-21T09:59:33;23.20;;;9.25;;
44446;SDS011;30152;52.066;5.358;2023-03-21T10:02:02;27.42;;;10.10;;
44446;SDS011;30152;52.066;5.358;2023-03-21T10:04:41;20.35;;;8.23;;
44446;SDS011;30152;52.066;5.358;2023-03-21T10:07:08;18.23;;;8.73;;
44446;SDS011;30152;52.066;5.358;2023-03-21T10:09:40;17.67;;;8.27;;
44446;SDS011;30152;52.066;5.358;2023-03-21T10:12:07;22.13;;;8.77;;
44446;SDS011;30152;52.066;5.358;2023-03-21T10:19:30;17.67;;;8.30;;
44446;SDS011;30152;52.066;5.358;2023-03-21T10:21:57;21.50;;;8.73;;
44446;SDS011;30152;52.066;5.358;2023-03-21T10:24:24;18.35;;;8.23;;
44446;SDS011;30152;52.066;5.358;2023-03-21T10:26:51;15.98;;;8.25;;
44446;SDS011;30152;52.066;5.358;2023-03-21T10:29:18;20.90;;;8.63;;
44446;SDS011;30152;52.066;5.358;2023-03-21T10:31:46;21.60;;;9.40;;
44446;SDS011;30152;52.066;5.358;2023-03-21T10:34:21;17.13;;;7.32;;
44446;SDS011;30152;52.066;5.358;2023-03-21T10:36:50;20.50;;;8.57;;
44446;SDS011;30152;52.066;5.358;2023-03-21T10:39:26;20.48;;;8.30;;
44446;SDS011;30152;52.066;5.358;2023-03-21T10:41:53;23.92;;;8.40;;
44446;SDS011;30152;52.066;5.358;2023-03-21T10:44:19;17.23;;;7.80;;
44446;SDS011;30152;52.066;5.358;2023-03-21T10:46:49;18.00;;;7.30;;
44446;SDS011;30152;52.066;5.358;2023-03-21T10:49:15;22.73;;;8.15;;
44446;SDS011;30152;52.066;5.358;2023-03-21T10:51:42;18.98;;;7.72;;
44446;SDS011;30152;52.066;5.358;2023-03-21T10:54:11;19.33;;;7.38;;
44446;SDS011;30152;52.066;5.358;2023-03-21T10:56:44;20.35;;;6.90;;
44446;SDS011;30152;52.066;5.358;2023-03-21T10:59:21;22.10;;;7.28;;
44446;SDS011;30152;52.066;5.358;2023-03-21T11:01:48;16.00;;;7.13;;
44446;SDS011;30152;52.066;5.358;2023-03-21T11:04:16;23.20;;;6.97;;
44446;SDS011;30152;52.066;5.358;2023-03-21T11:06:56;15.38;;;5.60;;
44446;SDS011;30152;52.066;5.358;2023-03-21T11:09:24;17.20;;;6.85;;
44446;SDS011;30152;52.066;5.358;2023-03-21T11:12:01;14.55;;;6.90;;
44446;SDS011;30152;52.066;5.358;2023-03-21T11:14:33;18.15;;;6.93;;
44446;SDS011;30152;52.066;5.358;2023-03-21T11:17:00;14.80;;;6.50;;
44446;SDS011;30152;52.066;5.358;2023-03-21T11:19:30;21.52;;;6.47;;
44446;SDS011;30152;52.066;5.358;2023-03-21T11:21:57;16.40;;;7.40;;
44446;SDS011;30152;52.066;5.358;2023-03-21T11:24:28;15.48;;;7.28;;
44446;SDS011;30152;52.066;5.358;2023-03-21T11:26:55;15.75;;;6.20;;
44446;SDS011;30152;52.066;5.358;2023-03-21T11:31:47;16.77;;;7.10;;
44446;SDS011;30152;52.066;5.358;2023-03-21T11:34:22;17.30;;;6.63;;
44446;SDS011;30152;52.066;5.358;2023-03-21T11:37:03;20.83;;;7.88;;
44446;SDS011;30152;52.066;5.358;2023-03-21T11:39:35;20.63;;;6.93;;
44446;SDS011;30152;52.066;5.358;2023-03-21T11:42:04;15.07;;;6.32;;
44446;SDS011;30152;52.066;5.358;2023-03-21T11:44:48;18.13;;;7.18;;
44446;SDS011;30152;52.066;5.358;2023-03-21T11:47:21;17.67;;;6.47;;
44446;SDS011;30152;52.066;5.358;2023-03-21T11:49:46;15.43;;;6.57;;
44446;SDS011;30152;52.066;5.358;2023-03-21T11:52:20;18.83;;;6.78;;
44446;SDS011;30152;52.066;5.358;2023-03-21T12:00:14;14.55;;;6.00;;
44446;SDS011;30152;52.066;5.358;2023-03-21T12:03:31;17.70;;;6.88;;
44446;SDS011;30152;52.066;5.358;2023-03-21T12:06:16;21.45;;;7.53;;
44446;SDS011;30152;52.066;5.358;2023-03-21T12:08:53;18.02;;;6.53;;
44446;SDS011;30152;52.066;5.358;2023-03-21T12:11:36;14.35;;;7.20;;
44446;SDS011;30152;52.066;5.358;2023-03-21T12:14:28;17.38;;;7.22;;
44446;SDS011;30152;52.066;5.358;2023-03-21T12:22:20;18.20;;;7.50;;
44446;SDS011;30152;52.066;5.358;2023-03-21T12:25:04;17.52;;;7.50;;
44446;SDS011;30152;52.066;5.358;2023-03-21T12:39:06;18.52;;;7.15;;
44446;SDS011;30152;52.066;5.358;2023-03-21T12:41:44;16.13;;;6.95;;
44446;SDS011;30152;52.066;5.358;2023-03-21T12:44:44;12.80;;;6.57;;
44446;SDS011;30152;52.066;5.358;2023-03-21T12:47:37;16.13;;;7.00;;
44446;SDS011;30152;52.066;5.358;2023-03-21T12:50:17;12.48;;;6.38;;
44446;SDS011;30152;52.066;5.358;2023-03-21T12:52:54;15.68;;;7.13;;
44446;SDS011;30152;52.066;5.358;2023-03-21T12:55:27;15.25;;;7.13;;
44446;SDS011;30152;52.066;5.358;2023-03-21T13:00:27;21.88;;;8.55;;
44446;SDS011;30152;52.066;5.358;2023-03-21T13:02:58;19.27;;;8.02;;
44446;SDS011;30152;52.066;5.358;2023-03-21T13:07:58;16.95;;;7.03;;
44446;SDS011;30152;52.066;5.358;2023-03-21T13:10:25;19.77;;;7.70;;
44446;SDS011;30152;52.066;5.358;2023-03-21T13:18:17;17.27;;;8.13;;
44446;SDS011;30152;52.066;5.358;2023-03-21T13:20:49;18.83;;;7.80;;
44446;SDS011;30152;52.066;5.358;2023-03-21T13:23:16;16.45;;;7.97;;
44446;SDS011;30152;52.066;5.358;2023-03-21T13:25:46;15.75;;;8.15;;
44446;SDS011;30152;52.066;5.358;2023-03-21T13:28:29;18.45;;;8.45;;
44446;SDS011;30152;52.066;5.358;2023-03-21T13:31:14;19.00;;;8.95;;
44446;SDS011;30152;52.066;5.358;2023-03-21T13:33:44;19.55;;;8.93;;
44446;SDS011;30152;52.066;5.358;2023-03-21T13:36:11;16.00;;;8.93;;
44446;SDS011;30152;52.066;5.358;2023-03-21T13:38:38;13.32;;;8.57;;
44446;SDS011;30152;52.066;5.358;2023-03-21T13:41:08;16.63;;;9.15;;
44446;SDS011;30152;52.066;5.358;2023-03-21T13:46:12;15.80;;;9.60;;
44446;SDS011;30152;52.066;5.358;2023-03-21T13:54:02;18.80;;;8.27;;
44446;SDS011;30152;52.066;5.358;2023-03-21T13:56:28;15.90;;;9.13;;
44446;SDS011;30152;52.066;5.358;2023-03-21T13:58:59;18.83;;;8.90;;
44446;SDS011;30152;52.066;5.358;2023-03-21T14:04:10;17.17;;;8.20;;
44446;SDS011;30152;52.066;5.358;2023-03-21T14:09:26;18.90;;;8.38;;
44446;SDS011;30152;52.066;5.358;2023-03-21T14:11:53;15.88;;;9.13;;
44446;SDS011;30152;52.066;5.358;2023-03-21T14:14:20;23.33;;;9.23;;
44446;SDS011;30152;52.066;5.358;2023-03-21T14:16:47;23.35;;;9.27;;
44446;SDS011;30152;52.066;5.358;2023-03-21T14:19:13;16.00;;;8.40;;
44446;SDS011;30152;52.066;5.358;2023-03-21T14:21:45;20.13;;;9.55;;
44446;SDS011;30152;52.066;5.358;2023-03-21T14:24:12;16.75;;;9.07;;
44446;SDS011;30152;52.066;5.358;2023-03-21T14:26:46;15.05;;;8.63;;
44446;SDS011;30152;52.066;5.358;2023-03-21T14:29:22;18.27;;;9.15;;
44446;SDS011;30152;52.066;5.358;2023-03-21T14:31:49;15.27;;;8.70;;
44446;SDS011;30152;52.066;5.358;2023-03-21T14:34:16;17.02;;;8.32;;
44446;SDS011;30152;52.066;5.358;2023-03-21T14:36:42;18.33;;;8.32;;
44446;SDS011;30152;52.066;5.358;2023-03-21T14:39:16;20.23;;;7.47;;
44446;SDS011;30152;52.066;5.358;2023-03-21T14:46:34;16.52;;;8.27;;
44446;SDS011;30152;52.066;5.358;2023-03-21T14:49:16;15.52;;;8.05;;
44446;SDS011;30152;52.066;5.358;2023-03-21T14:51:43;18.75;;;9.10;;
44446;SDS011;30152;52.066;5.358;2023-03-21T14:54:11;21.13;;;9.52;;
44446;SDS011;30152;52.066;5.358;2023-03-21T14:56:38;22.00;;;8.85;;
44446;SDS011;30152;52.066;5.358;2023-03-21T14:59:04;15.20;;;8.73;;
44446;SDS011;30152;52.066;5.358;2023-03-21T15:01:33;21.20;;;10.50;;
44446;SDS011;30152;52.066;5.358;2023-03-21T15:04:00;16.08;;;8.77;;
44446;SDS011;30152;52.066;5.358;2023-03-21T15:06:28;17.33;;;9.52;;
44446;SDS011;30152;52.066;5.358;2023-03-21T15:08:58;18.67;;;9.88;;
44446;SDS011;30152;52.066;5.358;2023-03-21T15:11:32;21.25;;;8.88;;
44446;SDS011;30152;52.066;5.358;2023-03-21T15:14:05;18.70;;;8.82;;
44446;SDS011;30152;52.066;5.358;2023-03-21T15:16:31;16.17;;;9.55;;
44446;SDS011;30152;52.066;5.358;2023-03-21T15:18:58;17.63;;;9.07;;
44446;SDS011;30152;52.066;5.358;2023-03-21T15:21:29;15.75;;;7.88;;
44446;SDS011;30152;52.066;5.358;2023-03-21T15:23:57;16.30;;;8.95;;
44446;SDS011;30152;52.066;5.358;2023-03-21T15:26:25;17.17;;;8.85;;
44446;SDS011;30152;52.066;5.358;2023-03-21T15:28:55;17.27;;;8.52;;
44446;SDS011;30152;52.066;5.358;2023-03-21T15:31:22;19.33;;;8.75;;
44446;SDS011;30152;52.066;5.358;2023-03-21T15:33:49;20.67;;;8.40;;
44446;SDS011;30152;52.066;5.358;2023-03-21T15:36:35;16.33;;;9.27;;
44446;SDS011;30152;52.066;5.358;2023-03-21T15:39:04;18.52;;;8.32;;
44446;SDS011;30152;52.066;5.358;2023-03-21T15:41:31;16.88;;;8.65;;
44446;SDS011;30152;52.066;5.358;2023-03-21T15:46:40;19.75;;;8.02;;
44446;SDS011;30152;52.066;5.358;2023-03-21T15:51:45;19.15;;;8.80;;
44446;SDS011;30152;52.066;5.358;2023-03-21T15:54:16;14.63;;;8.55;;
44446;SDS011;30152;52.066;5.358;2023-03-21T15:56:45;13.10;;;7.72;;
44446;SDS011;30152;52.066;5.358;2023-03-21T15:59:15;16.88;;;8.63;;
44446;SDS011;30152;52.066;5.358;2023-03-21T16:01:43;18.50;;;9.63;;
44446;SDS011;30152;52.066;5.358;2023-03-21T16:04:10;13.80;;;8.65;;
44446;SDS011;30152;52.066;5.358;2023-03-21T16:06:58;19.27;;;9.25;;
44446;SDS011;30152;52.066;5.358;2023-03-21T16:09:25;23.65;;;11.30;;
44446;SDS011;30152;52.066;5.358;2023-03-21T16:11:52;18.98;;;9.75;;
44446;SDS011;30152;52.066;5.358;2023-03-21T16:14:19;19.27;;;10.30;;
44446;SDS011;30152;52.066;5.358;2023-03-21T16:16:46;14.77;;;8.38;;
44446;SDS011;30152;52.066;5.358;2023-03-21T16:19:12;18.48;;;9.90;;
44446;SDS011;30152;52.066;5.358;2023-03-21T16:21:38;17.67;;;10.15;;
44446;SDS011;30152;52.066;5.358;2023-03-21T16:24:05;19.75;;;10.75;;
44446;SDS011;30152;52.066;5.358;2023-03-21T16:26:32;22.33;;;10.73;;
44446;SDS011;30152;52.066;5.358;2023-03-21T16:28:59;17.20;;;9.30;;
44446;SDS011;30152;52.066;5.358;2023-03-21T16:31:31;18.00;;;9.98;;
44446;SDS011;30152;52.066;5.358;2023-03-21T16:33:58;23.27;;;10.25;;
44446;SDS011;30152;52.066;5.358;2023-03-21T16:36:27;23.58;;;9.40;;
44446;SDS011;30152;52.066;5.358;2023-03-21T16:38:53;18.40;;;9.65;;
44446;SDS011;30152;52.066;5.358;2023-03-21T16:41:20;17.05;;;8.63;;
44446;SDS011;30152;52.066;5.358;2023-03-21T16:43:46;22.58;;;8.43;;
44446;SDS011;30152;52.066;5.358;2023-03-21T16:46:13;15.82;;;7.95;;
44446;SDS011;30152;52.066;5.358;2023-03-21T16:48:40;17.70;;;8.15;;
44446;SDS011;30152;52.066;5.358;2023-03-21T16:51:10;15.68;;;8.25;;
44446;SDS011;30152;52.066;5.358;2023-03-21T16:53:36;15.93;;;9.35;;
44446;SDS011;30152;52.066;5.358;2023-03-21T16:56:02;16.98;;;8.80;;
44446;SDS011;30152;52.066;5.358;2023-03-21T16:58:29;17.75;;;9.43;;
44446;SDS011;30152;52.066;5.358;2023-03-21T17:00:55;27.83;;;11.57;;
44446;SDS011;30152;52.066;5.358;2023-03-21T17:03:21;20.73;;;10.63;;
44446;SDS011;30152;52.066;5.358;2023-03-21T17:05:47;17.10;;;9.48;;
44446;SDS011;30152;52.066;5.358;2023-03-21T17:08:14;17.23;;;9.52;;
44446;SDS011;30152;52.066;5.358;2023-03-21T17:10:40;15.98;;;9.50;;
44446;SDS011;30152;52.066;5.358;2023-03-21T17:13:06;16.10;;;9.20;;
44446;SDS011;30152;52.066;5.358;2023-03-21T17:15:32;16.65;;;9.77;;
44446;SDS011;30152;52.066;5.358;2023-03-21T17:17:58;16.65;;;10.18;;
44446;SDS011;30152;52.066;5.358;2023-03-21T17:20:31;17.88;;;9.85;;
44446;SDS011;30152;52.066;5.358;2023-03-21T17:22:57;17.75;;;10.27;;
44446;SDS011;30152;52.066;5.358;2023-03-21T17:25:24;20.77;;;10.35;;
44446;SDS011;30152;52.066;5.358;2023-03-21T17:27:50;21.45;;;10.40;;
44446;SDS011;30152;52.066;5.358;2023-03-21T17:30:22;22.27;;;10.75;;
44446;SDS011;30152;52.066;5.358;2023-03-21T17:32:48;15.23;;;9.80;;
44446;SDS011;30152;52.066;5.358;2023-03-21T17:35:14;17.52;;;10.05;;
44446;SDS011;30152;52.066;5.358;2023-03-21T17:37:41;16.75;;;9.80;;
44446;SDS011;30152;52.066;5.358;2023-03-21T17:40:08;14.02;;;9.18;;
44446;SDS011;30152;52.066;5.358;2023-03-21T17:42:35;17.67;;;8.40;;
44446;SDS011;30152;52.066;5.358;2023-03-21T17:45:02;17.00;;;9.13;;
44446;SDS011;30152;52.066;5.358;2023-03-21T17:47:28;16.13;;;8.85;;
44446;SDS011;30152;52.066;5.358;2023-03-21T17:49:54;21.08;;;8.75;;
44446;SDS011;30152;52.066;5.358;2023-03-21T17:52:20;19.35;;;8.07;;
44446;SDS011;30152;52.066;5.358;2023-03-21T17:54:46;11.73;;;7.30;;
44446;SDS011;30152;52.066;5.358;2023-03-21T17:57:12;16.35;;;7.85;;
44446;SDS011;30152;52.066;5.358;2023-03-21T17:59:38;16.52;;;7.85;;
44446;SDS011;30152;52.066;5.358;2023-03-21T18:02:04;19.83;;;7.97;;
44446;SDS011;30152;52.066;5.358;2023-03-21T18:04:30;14.63;;;8.05;;
44446;SDS011;30152;52.066;5.358;2023-03-21T18:06:56;20.30;;;8.80;;
44446;SDS011;30152;52.066;5.358;2023-03-21T18:09:24;15.60;;;8.35;;
44446;SDS011;30152;52.066;5.358;2023-03-21T18:11:50;19.40;;;8.13;;
44446;SDS011;30152;52.066;5.358;2023-03-21T18:14:16;13.77;;;8.15;;
44446;SDS011;30152;52.066;5.358;2023-03-21T18:16:45;17.10;;;8.38;;
44446;SDS011;30152;52.066;5.358;2023-03-21T18:19:11;15.95;;;8.73;;
44446;SDS011;30152;52.066;5.358;2023-03-21T18:21:37;17.45;;;9.52;;
44446;SDS011;30152;52.066;5.358;2023-03-21T18:24:05;18.90;;;8.85;;
44446;SDS011;30152;52.066;5.358;2023-03-21T18:26:31;15.73;;;8.80;;
44446;SDS011;30152;52.066;5.358;2023-03-21T18:28:57;13.63;;;8.35;;
44446;SDS011;30152;52.066;5.358;2023-03-21T18:31:23;13.98;;;8.07;;
44446;SDS011;30152;52.066;5.358;2023-03-21T18:33:49;16.27;;;10.10;;
44446;SDS011;30152;52.066;5.358;2023-03-21T18:36:16;16.05;;;9.35;;
44446;SDS011;30152;52.066;5.358;2023-03-21T18:38:43;18.17;;;9.77;;
44446;SDS011;30152;52.066;5.358;2023-03-21T18:41:10;16.77;;;9.10;;
44446;SDS011;30152;52.066;5.358;2023-03-21T18:43:36;16.45;;;9.32;;
44446;SDS011;30152;52.066;5.358;2023-03-21T18:46:03;16.73;;;10.30;;
44446;SDS011;30152;52.066;5.358;2023-03-21T18:48:29;15.38;;;9.02;;
44446;SDS011;30152;52.066;5.358;2023-03-21T18:50:55;16.38;;;10.52;;
44446;SDS011;30152;52.066;5.358;2023-03-21T18:53:21;17.02;;;10.77;;
44446;SDS011;30152;52.066;5.358;2023-03-21T18:55:47;22.95;;;10.18;;
44446;SDS011;30152;52.066;5.358;2023-03-21T18:58:13;22.27;;;10.05;;
44446;SDS011;30152;52.066;5.358;2023-03-21T19:00:41;15.57;;;10.20;;
44446;SDS011;30152;52.066;5.358;2023-03-21T19:03:07;19.33;;;11.15;;
44446;SDS011;30152;52.066;5.358;2023-03-21T19:05:35;19.52;;;11.05;;
44446;SDS011;30152;52.066;5.358;2023-03-21T19:08:01;17.95;;;11.50;;
44446;SDS011;30152;52.066;5.358;2023-03-21T19:10:27;17.58;;;11.25;;
44446;SDS011;30152;52.066;5.358;2023-03-21T19:12:53;17.17;;;11.93;;
44446;SDS011;30152;52.066;5.358;2023-03-21T19:15:20;22.23;;;11.73;;
44446;SDS011;30152;52.066;5.358;2023-03-21T19:17:48;17.92;;;11.43;;
44446;SDS011;30152;52.066;5.358;2023-03-21T19:20:14;21.88;;;12.10;;
44446;SDS011;30152;52.066;5.358;2023-03-21T19:22:40;18.50;;;11.40;;
44446;SDS011;30152;52.066;5.358;2023-03-21T19:25:06;21.63;;;11.20;;
44446;SDS011;30152;52.066;5.358;2023-03-21T19:27:33;21.67;;;11.43;;
44446;SDS011;30152;52.066;5.358;2023-03-21T19:29:59;20.20;;;11.80;;
44446;SDS011;30152;52.066;5.358;2023-03-21T19:32:26;21.65;;;12.02;;
44446;SDS011;30152;52.066;5.358;2023-03-21T19:34:52;21.88;;;12.32;;
44446;SDS011;30152;52.066;5.358;2023-03-21T19:37:18;18.00;;;11.93;;
44446;SDS011;30152;52.066;5.358;2023-03-21T19:39:43;18.13;;;10.43;;
44446;SDS011;30152;52.066;5.358;2023-03-21T19:42:09;23.75;;;12.23;;
44446;SDS011;30152;52.066;5.358;2023-03-21T19:44:35;21.48;;;12.23;;
44446;SDS011;30152;52.066;5.358;2023-03-21T19:47:01;21.73;;;11.20;;
44446;SDS011;30152;52.066;5.358;2023-03-21T19:49:27;21.20;;;12.40;;
44446;SDS011;30152;52.066;5.358;2023-03-21T19:51:54;22.63;;;12.40;;
44446;SDS011;30152;52.066;5.358;2023-03-21T19:54:20;25.85;;;12.93;;
44446;SDS011;30152;52.066;5.358;2023-03-21T19:56:47;18.90;;;11.43;;
44446;SDS011;30152;52.066;5.358;2023-03-21T19:59:13;19.52;;;11.82;;
44446;SDS011;30152;52.066;5.358;2023-03-21T20:01:39;28.05;;;12.82;;
44446;SDS011;30152;52.066;5.358;2023-03-21T20:04:05;19.90;;;12.23;;
44446;SDS011;30152;52.066;5.358;2023-03-21T20:06:31;21.58;;;12.90;;
44446;SDS011;30152;52.066;5.358;2023-03-21T20:08:57;22.23;;;14.02;;
44446;SDS011;30152;52.066;5.358;2023-03-21T20:11:23;22.55;;;12.63;;
44446;SDS011;30152;52.066;5.358;2023-03-21T20:13:49;22.50;;;13.30;;
44446;SDS011;30152;52.066;5.358;2023-03-21T20:16:15;21.30;;;13.40;;
44446;SDS011;30152;52.066;5.358;2023-03-21T20:18:42;22.65;;;13.25;;
44446;SDS011;30152;52.066;5.358;2023-03-21T20:21:08;23.92;;;13.30;;
44446;SDS011;30152;52.066;5.358;2023-03-21T20:23:34;22.90;;;14.00;;
44446;SDS011;30152;52.066;5.358;2023-03-21T20:26:09;23.67;;;13.13;;
44446;SDS011;30152;52.066;5.358;2023-03-21T20:28:35;23.25;;;12.80;;
44446;SDS011;30152;52.066;5.358;2023-03-21T20:31:01;24.10;;;13.68;;
44446;SDS011;30152;52.066;5.358;2023-03-21T20:33:27;21.75;;;13.00;;
44446;SDS011;30152;52.066;5.358;2023-03-21T20:35:58;24.35;;;12.52;;
44446;SDS011;30152;52.066;5.358;2023-03-21T20:38:26;20.45;;;12.18;;
44446;SDS011;30152;52.066;5.358;2023-03-21T20:40:54;21.25;;;11.50;;
44446;SDS011;30152;52.066;5.358;2023-03-21T20:43:20;20.55;;;11.75;;
44446;SDS011;30152;52.066;5.358;2023-03-21T20:45:46;18.35;;;10.35;;
44446;SDS011;30152;52.066;5.358;2023-03-21T20:48:12;15.88;;;9.55;;
44446;SDS011;30152;52.066;5.358;2023-03-21T20:50:38;22.55;;;10.98;;
44446;SDS011;30152;52.066;5.358;2023-03-21T20:53:04;16.08;;;8.80;;
44446;SDS011;30152;52.066;5.358;2023-03-21T20:55:30;18.95;;;10.02;;
44446;SDS011;30152;52.066;5.358;2023-03-21T20:57:57;18.35;;;9.30;;
44446;SDS011;30152;52.066;5.358;2023-03-21T21:00:24;17.00;;;8.98;;
44446;SDS011;30152;52.066;5.358;2023-03-21T21:02:51;16.63;;;8.07;;
44446;SDS011;30152;52.066;5.358;2023-03-21T21:05:17;15.18;;;7.97;;
44446;SDS011;30152;52.066;5.358;2023-03-21T21:07:43;14.73;;;7.70;;
44446;SDS011;30152;52.066;5.358;2023-03-21T21:10:10;17.17;;;7.70;;
44446;SDS011;30152;52.066;5.358;2023-03-21T21:12:39;18.77;;;8.15;;
44446;SDS011;30152;52.066;5.358;2023-03-21T21:15:06;17.70;;;8.68;;
44446;SDS011;30152;52.066;5.358;2023-03-21T21:17:33;13.45;;;7.45;;
44446;SDS011;30152;52.066;5.358;2023-03-21T21:20:00;17.95;;;8.43;;
44446;SDS011;30152;52.066;5.358;2023-03-21T21:22:26;18.95;;;7.78;;
44446;SDS011;30152;52.066;5.358;2023-03-21T21:24:52;19.92;;;8.90;;
44446;SDS011;30152;52.066;5.358;2023-03-21T21:27:19;18.65;;;8.90;;
44446;SDS011;30152;52.066;5.358;2023-03-21T21:29:45;21.33;;;9.20;;
44446;SDS011;30152;52.066;5.358;2023-03-21T21:32:13;22.52;;;10.02;;
44446;SDS011;30152;52.066;5.358;2023-03-21T21:34:42;20.42;;;9.77;;
44446;SDS011;30152;52.066;5.358;2023-03-21T21:37:08;22.13;;;9.63;;
44446;SDS011;30152;52.066;5.358;2023-03-21T21:39:34;17.60;;;10.63;;
44446;SDS011;30152;52.066;5.358;2023-03-21T21:42:01;23.55;;;10.50;;
44446;SDS011;30152;52.066;5.358;2023-03-21T21:44:27;23.30;;;11.63;;
44446;SDS011;30152;52.066;5.358;2023-03-21T21:46:53;19.92;;;10.73;;
44446;SDS011;30152;52.066;5.358;2023-03-21T21:49:21;16.70;;;9.55;;
44446;SDS011;30152;52.066;5.358;2023-03-21T21:51:47;23.02;;;10.63;;
44446;SDS011;30152;52.066;5.358;2023-03-21T21:54:13;19.73;;;9.55;;
44446;SDS011;30152;52.066;5.358;2023-03-21T21:56:42;20.00;;;9.27;;
44446;SDS011;30152;52.066;5.358;2023-03-21T21:59:12;16.23;;;8.55;;
44446;SDS011;30152;52.066;5.358;2023-03-21T22:01:40;15.35;;;7.70;;
44446;SDS011;30152;52.066;5.358;2023-03-21T22:04:06;18.67;;;8.50;;
